Terminal Aerodrome Forecast
Issued by NWS

Home | Current Version | Previous Version | Text Only | Print | Product List | Glossary On
Versions: 1 2 3 4 5 6 7 8 9 10 11 12 13
000
FTUS45 KRIW 291120
TAFBPI
TAF
KBPI 291120Z 2912/3012 VRB05KT P6SM FEW100
     FM291700 24006KT P6SM SCT100 BKN200
     FM292100 VRB10G16KT P6SM VCTS SCT060CB BKN100
     FM300100 VRB06KT P6SM VCSH SCT060 BKN080
     FM300500 VRB05KT P6SM FEW060 BKN080=

USA.gov is the U.S. government's official web portal to all federal, state and local government web resources and services.